sensor_id;sensor_type;location;lat;lon;timestamp;pressure;altitude;pressure_sealevel;temperature;humidity
51299;BME280;37382;45.192;9.790;2023-01-01T00:00:47;102880.75;;;8.83;100.00
51299;BME280;37382;45.192;9.790;2023-01-01T00:03:15;102886.72;;;8.77;100.00
51299;BME280;37382;45.192;9.790;2023-01-01T00:05:43;102880.50;;;8.65;100.00
51299;BME280;37382;45.192;9.790;2023-01-01T00:08:10;102881.91;;;8.80;100.00
51299;BME280;37382;45.192;9.790;2023-01-01T00:10:37;102875.06;;;8.65;100.00
51299;BME280;37382;45.192;9.790;2023-01-01T00:13:05;102865.66;;;8.48;100.00
51299;BME280;37382;45.192;9.790;2023-01-01T00:15:32;102873.31;;;8.43;100.00
51299;BME280;37382;45.192;9.790;2023-01-01T00:18:00;102874.69;;;8.48;100.00
51299;BME280;37382;45.192;9.790;2023-01-01T00:20:27;102869.25;;;8.48;100.00
51299;BME280;37382;45.192;9.790;2023-01-01T00:23:01;102870.50;;;8.65;100.00
51299;BME280;37382;45.192;9.790;2023-01-01T00:25:29;102873.28;;;8.75;100.00
51299;BME280;37382;45.192;9.790;2023-01-01T00:27:58;102863.16;;;8.56;100.00
51299;BME280;37382;45.192;9.790;2023-01-01T00:30:26;102861.13;;;8.69;100.00
51299;BME280;37382;45.192;9.790;2023-01-01T00:32:54;102865.28;;;8.52;100.00
51299;BME280;37382;45.192;9.790;2023-01-01T00:35:23;102859.72;;;8.22;100.00
51299;BME280;37382;45.192;9.790;2023-01-01T00:37:52;102866.28;;;8.51;100.00
51299;BME280;37382;45.192;9.790;2023-01-01T00:40:20;102869.19;;;8.27;100.00
51299;BME280;37382;45.192;9.790;2023-01-01T00:42:48;102867.41;;;8.49;100.00
51299;BME280;37382;45.192;9.790;2023-01-01T00:45:15;102859.69;;;8.33;100.00
51299;BME280;37382;45.192;9.790;2023-01-01T00:47:49;102860.72;;;8.42;100.00
51299;BME280;37382;45.192;9.790;2023-01-01T00:50:18;102869.00;;;8.40;100.00
51299;BME280;37382;45.192;9.790;2023-01-01T00:52:46;102867.72;;;8.23;100.00
51299;BME280;37382;45.192;9.790;2023-01-01T00:55:15;102884.56;;;8.06;100.00
51299;BME280;37382;45.192;9.790;2023-01-01T00:57:43;102879.91;;;8.29;100.00
51299;BME280;37382;45.192;9.790;2023-01-01T01:00:11;102879.25;;;8.36;100.00
51299;BME280;37382;45.192;9.790;2023-01-01T01:02:39;102885.25;;;8.19;100.00
51299;BME280;37382;45.192;9.790;2023-01-01T01:05:07;102888.47;;;8.13;100.00
51299;BME280;37382;45.192;9.790;2023-01-01T01:07:35;102892.22;;;8.00;100.00
51299;BME280;37382;45.192;9.790;2023-01-01T01:10:04;102875.16;;;8.10;100.00
51299;BME280;37382;45.192;9.790;2023-01-01T01:12:33;102878.28;;;8.05;100.00
51299;BME280;37382;45.192;9.790;2023-01-01T01:15:01;102887.75;;;8.11;100.00
51299;BME280;37382;45.192;9.790;2023-01-01T01:17:30;102885.28;;;8.08;100.00
51299;BME280;37382;45.192;9.790;2023-01-01T01:19:57;102896.19;;;7.96;100.00
51299;BME280;37382;45.192;9.790;2023-01-01T01:22:25;102894.28;;;8.41;100.00
51299;BME280;37382;45.192;9.790;2023-01-01T01:24:56;102897.22;;;8.16;100.00
51299;BME280;37382;45.192;9.790;2023-01-01T01:27:24;102889.09;;;8.05;100.00
51299;BME280;37382;45.192;9.790;2023-01-01T01:29:51;102881.88;;;7.94;100.00
51299;BME280;37382;45.192;9.790;2023-01-01T01:32:20;102870.13;;;8.16;100.00
51299;BME280;37382;45.192;9.790;2023-01-01T01:34:47;102867.81;;;8.33;100.00
51299;BME280;37382;45.192;9.790;2023-01-01T01:37:15;102858.94;;;8.31;100.00
51299;BME280;37382;45.192;9.790;2023-01-01T01:39:42;102864.56;;;8.18;100.00
51299;BME280;37382;45.192;9.790;2023-01-01T01:42:16;102866.94;;;8.44;100.00
51299;BME280;37382;45.192;9.790;2023-01-01T01:44:51;102867.00;;;8.53;100.00
51299;BME280;37382;45.192;9.790;2023-01-01T01:47:33;102861.84;;;8.50;100.00
51299;BME280;37382;45.192;9.790;2023-01-01T01:50:09;102871.34;;;8.12;100.00
51299;BME280;37382;45.192;9.790;2023-01-01T01:52:43;102875.31;;;8.08;100.00
51299;BME280;37382;45.192;9.790;2023-01-01T01:55:14;102878.44;;;7.92;100.00
51299;BME280;37382;45.192;9.790;2023-01-01T01:57:41;102875.22;;;7.98;100.00
51299;BME280;37382;45.192;9.790;2023-01-01T02:00:10;102879.28;;;7.93;100.00
51299;BME280;37382;45.192;9.790;2023-01-01T02:02:52;102882.19;;;8.12;100.00
51299;BME280;37382;45.192;9.790;2023-01-01T02:05:22;102885.22;;;7.98;100.00
51299;BME280;37382;45.192;9.790;2023-01-01T02:07:50;102882.13;;;7.91;100.00
51299;BME280;37382;45.192;9.790;2023-01-01T02:10:19;102885.72;;;7.80;100.00
51299;BME280;37382;45.192;9.790;2023-01-01T02:12:47;102892.00;;;7.81;100.00
51299;BME280;37382;45.192;9.790;2023-01-01T02:15:14;102890.91;;;7.83;100.00
51299;BME280;37382;45.192;9.790;2023-01-01T02:26:37;102850.88;;;8.19;100.00
51299;BME280;37382;45.192;9.790;2023-01-01T02:29:16;102844.69;;;8.17;100.00
51299;BME280;37382;45.192;9.790;2023-01-01T02:32:17;102839.13;;;8.30;100.00
51299;BME280;37382;45.192;9.790;2023-01-01T02:34:57;102830.75;;;8.22;100.00
51299;BME280;37382;45.192;9.790;2023-01-01T02:37:27;102837.22;;;8.10;100.00
51299;BME280;37382;45.192;9.790;2023-01-01T02:39:58;102835.97;;;8.14;100.00
51299;BME280;37382;45.192;9.790;2023-01-01T02:42:27;102841.47;;;8.24;100.00
51299;BME280;37382;45.192;9.790;2023-01-01T02:44:57;102840.81;;;8.10;100.00
51299;BME280;37382;45.192;9.790;2023-01-01T02:47:25;102840.84;;;7.99;100.00
51299;BME280;37382;45.192;9.790;2023-01-01T02:50:03;102846.25;;;7.99;100.00
51299;BME280;37382;45.192;9.790;2023-01-01T02:52:44;102840.13;;;7.97;100.00
51299;BME280;37382;45.192;9.790;2023-01-01T02:55:26;102826.03;;;8.03;100.00
51299;BME280;37382;45.192;9.790;2023-01-01T03:00:55;102821.22;;;8.07;100.00
51299;BME280;37382;45.192;9.790;2023-01-01T03:03:31;102816.78;;;8.27;100.00
51299;BME280;37382;45.192;9.790;2023-01-01T03:06:05;102812.50;;;8.03;100.00
51299;BME280;37382;45.192;9.790;2023-01-01T03:09:46;102804.16;;;7.95;100.00
51299;BME280;37382;45.192;9.790;2023-01-01T03:14:56;102810.03;;;8.00;100.00
51299;BME280;37382;45.192;9.790;2023-01-01T03:17:38;102825.03;;;7.83;100.00
51299;BME280;37382;45.192;9.790;2023-01-01T03:20:12;102820.44;;;7.83;100.00
51299;BME280;37382;45.192;9.790;2023-01-01T03:22:42;102810.19;;;7.87;100.00
51299;BME280;37382;45.192;9.790;2023-01-01T03:25:21;102822.91;;;7.87;100.00
51299;BME280;37382;45.192;9.790;2023-01-01T03:27:57;102825.59;;;7.87;100.00
51299;BME280;37382;45.192;9.790;2023-01-01T03:30:27;102813.00;;;7.97;100.00
51299;BME280;37382;45.192;9.790;2023-01-01T03:33:06;102804.06;;;7.85;100.00
51299;BME280;37382;45.192;9.790;2023-01-01T03:35:48;102815.28;;;7.80;100.00
51299;BME280;37382;45.192;9.790;2023-01-01T03:40:51;102813.44;;;7.81;100.00
51299;BME280;37382;45.192;9.790;2023-01-01T03:43:45;102815.28;;;7.80;100.00
51299;BME280;37382;45.192;9.790;2023-01-01T03:46:19;102799.88;;;7.81;100.00
51299;BME280;37382;45.192;9.790;2023-01-01T03:48:48;102811.72;;;7.80;100.00
51299;BME280;37382;45.192;9.790;2023-01-01T03:54:51;102829.34;;;7.74;100.00
51299;BME280;37382;45.192;9.790;2023-01-01T04:00:06;102817.91;;;7.71;100.00
51299;BME280;37382;45.192;9.790;2023-01-01T04:05:17;102813.81;;;7.76;100.00
51299;BME280;37382;45.192;9.790;2023-01-01T04:07:47;102809.16;;;7.78;100.00
51299;BME280;37382;45.192;9.790;2023-01-01T04:10:14;102818.03;;;7.69;100.00
51299;BME280;37382;45.192;9.790;2023-01-01T04:12:47;102823.34;;;7.71;100.00
51299;BME280;37382;45.192;9.790;2023-01-01T04:15:16;102816.19;;;7.70;100.00
51299;BME280;37382;45.192;9.790;2023-01-01T04:17:45;102811.34;;;7.73;100.00
51299;BME280;37382;45.192;9.790;2023-01-01T04:20:13;102818.97;;;7.79;100.00
51299;BME280;37382;45.192;9.790;2023-01-01T04:22:40;102814.94;;;7.74;100.00
51299;BME280;37382;45.192;9.790;2023-01-01T04:25:08;102817.16;;;7.69;100.00
51299;BME280;37382;45.192;9.790;2023-01-01T04:27:36;102812.75;;;7.68;100.00
51299;BME280;37382;45.192;9.790;2023-01-01T04:30:07;102821.59;;;7.70;100.00
51299;BME280;37382;45.192;9.790;2023-01-01T04:32:34;102816.31;;;7.68;100.00
51299;BME280;37382;45.192;9.790;2023-01-01T04:35:02;102820.38;;;7.74;100.00
51299;BME280;37382;45.192;9.790;2023-01-01T04:37:29;102812.63;;;7.69;100.00
51299;BME280;37382;45.192;9.790;2023-01-01T04:39:57;102814.84;;;7.64;100.00
51299;BME280;37382;45.192;9.790;2023-01-01T04:42:24;102810.63;;;7.71;100.00
51299;BME280;37382;45.192;9.790;2023-01-01T04:44:52;102813.09;;;7.74;100.00
51299;BME280;37382;45.192;9.790;2023-01-01T04:47:20;102813.09;;;7.74;100.00
51299;BME280;37382;45.192;9.790;2023-01-01T04:49:48;102826.78;;;7.73;100.00
51299;BME280;37382;45.192;9.790;2023-01-01T04:52:15;102822.59;;;7.69;100.00
51299;BME280;37382;45.192;9.790;2023-01-01T04:54:43;102828.88;;;7.69;100.00
51299;BME280;37382;45.192;9.790;2023-01-01T04:57:11;102835.03;;;7.71;100.00
51299;BME280;37382;45.192;9.790;2023-01-01T04:59:40;102836.00;;;7.70;100.00
51299;BME280;37382;45.192;9.790;2023-01-01T05:02:07;102830.72;;;7.69;100.00
51299;BME280;37382;45.192;9.790;2023-01-01T05:04:35;102824.94;;;7.62;100.00
51299;BME280;37382;45.192;9.790;2023-01-01T05:07:02;102833.16;;;7.72;100.00
51299;BME280;37382;45.192;9.790;2023-01-01T05:09:30;102838.44;;;7.73;100.00
51299;BME280;37382;45.192;9.790;2023-01-01T05:11:58;102840.31;;;7.73;100.00
51299;BME280;37382;45.192;9.790;2023-01-01T05:14:25;102839.47;;;7.72;100.00
51299;BME280;37382;45.192;9.790;2023-01-01T05:16:54;102826.97;;;7.81;100.00
51299;BME280;37382;45.192;9.790;2023-01-01T05:19:21;102842.63;;;7.77;100.00
51299;BME280;37382;45.192;9.790;2023-01-01T05:21:49;102838.44;;;7.73;100.00
51299;BME280;37382;45.192;9.790;2023-01-01T05:24:16;102827.34;;;7.76;100.00
51299;BME280;37382;45.192;9.790;2023-01-01T05:26:44;102822.66;;;7.90;100.00
51299;BME280;37382;45.192;9.790;2023-01-01T05:29:12;102816.41;;;7.78;100.00
51299;BME280;37382;45.192;9.790;2023-01-01T05:31:43;102810.34;;;7.86;100.00
51299;BME280;37382;45.192;9.790;2023-01-01T05:34:11;102802.91;;;7.99;100.00
51299;BME280;37382;45.192;9.790;2023-01-01T05:36:39;102802.31;;;7.95;100.00
51299;BME280;37382;45.192;9.790;2023-01-01T05:39:08;102805.59;;;7.99;100.00
51299;BME280;37382;45.192;9.790;2023-01-01T05:41:36;102816.69;;;8.07;100.00
51299;BME280;37382;45.192;9.790;2023-01-01T05:44:06;102819.22;;;7.88;100.00
51299;BME280;37382;45.192;9.790;2023-01-01T05:46:35;102820.06;;;7.88;100.00
51299;BME280;37382;45.192;9.790;2023-01-01T05:49:03;102827.72;;;7.83;100.00
51299;BME280;37382;45.192;9.790;2023-01-01T05:51:31;102830.88;;;7.99;100.00
51299;BME280;37382;45.192;9.790;2023-01-01T05:53:58;102823.03;;;7.85;100.00
51299;BME280;37382;45.192;9.790;2023-01-01T05:56:26;102818.84;;;7.81;100.00
51299;BME280;37382;45.192;9.790;2023-01-01T05:58:54;102820.00;;;7.78;100.00
51299;BME280;37382;45.192;9.790;2023-01-01T06:01:23;102825.59;;;7.87;100.00
51299;BME280;37382;45.192;9.790;2023-01-01T06:03:53;102833.97;;;7.95;100.00
51299;BME280;37382;45.192;9.790;2023-01-01T06:06:24;102825.22;;;7.91;100.00
51299;BME280;37382;45.192;9.790;2023-01-01T06:08:53;102825.75;;;7.85;100.00
51299;BME280;37382;45.192;9.790;2023-01-01T06:11:22;102834.31;;;8.01;100.00
51299;BME280;37382;45.192;9.790;2023-01-01T06:13:54;102832.97;;;7.96;100.00
51299;BME280;37382;45.192;9.790;2023-01-01T06:16:23;102845.56;;;7.86;100.00
51299;BME280;37382;45.192;9.790;2023-01-01T06:18:51;102843.22;;;7.92;100.00
51299;BME280;37382;45.192;9.790;2023-01-01T06:21:21;102853.34;;;7.90;100.00
51299;BME280;37382;45.192;9.790;2023-01-01T06:23:49;102851.03;;;8.07;100.00
51299;BME280;37382;45.192;9.790;2023-01-01T06:26:19;102837.41;;;7.97;100.00
51299;BME280;37382;45.192;9.790;2023-01-01T06:28:47;102844.56;;;7.98;100.00
51299;BME280;37382;45.192;9.790;2023-01-01T06:31:17;102846.13;;;8.00;100.00
51299;BME280;37382;45.192;9.790;2023-01-01T06:33:46;102851.59;;;7.89;100.00
51299;BME280;37382;45.192;9.790;2023-01-01T06:36:15;102848.13;;;7.87;100.00
51299;BME280;37382;45.192;9.790;2023-01-01T06:38:45;102853.56;;;7.87;100.00
51299;BME280;37382;45.192;9.790;2023-01-01T06:41:15;102840.81;;;8.10;100.00
51299;BME280;37382;45.192;9.790;2023-01-01T06:43:43;102831.00;;;8.19;100.00
51299;BME280;37382;45.192;9.790;2023-01-01T06:48:45;102831.00;;;7.98;100.00
51299;BME280;37382;45.192;9.790;2023-01-01T06:51:15;102826.69;;;7.95;100.00
51299;BME280;37382;45.192;9.790;2023-01-01T06:53:44;102834.63;;;8.08;100.00
51299;BME280;37382;45.192;9.790;2023-01-01T06:56:12;102835.25;;;8.12;100.00
51299;BME280;37382;45.192;9.790;2023-01-01T06:58:40;102836.16;;;8.01;100.00
51299;BME280;37382;45.192;9.790;2023-01-01T07:01:13;102828.31;;;7.98;100.00
51299;BME280;37382;45.192;9.790;2023-01-01T07:03:42;102820.56;;;8.14;100.00
51299;BME280;37382;45.192;9.790;2023-01-01T07:06:10;102826.25;;;8.11;100.00
51299;BME280;37382;45.192;9.790;2023-01-01T07:08:38;102837.75;;;8.04;100.00
51299;BME280;37382;45.192;9.790;2023-01-01T07:11:06;102832.97;;;8.28;100.00
51299;BME280;37382;45.192;9.790;2023-01-01T07:13:33;102833.41;;;8.12;100.00
51299;BME280;37382;45.192;9.790;2023-01-01T07:16:01;102832.31;;;8.04;100.00
51299;BME280;37382;45.192;9.790;2023-01-01T07:18:36;102846.25;;;7.99;100.00
51299;BME280;37382;45.192;9.790;2023-01-01T07:21:19;102842.09;;;7.95;100.00
51299;BME280;37382;45.192;9.790;2023-01-01T07:23:59;102845.16;;;8.01;100.00
51299;BME280;37382;45.192;9.790;2023-01-01T07:26:28;102853.28;;;8.01;100.00
51299;BME280;37382;45.192;9.790;2023-01-01T07:28:56;102851.91;;;8.07;100.00
51299;BME280;37382;45.192;9.790;2023-01-01T07:31:36;102846.66;;;7.94;100.00
51299;BME280;37382;45.192;9.790;2023-01-01T07:34:05;102855.78;;;7.93;100.00
51299;BME280;37382;45.192;9.790;2023-01-01T07:36:33;102850.06;;;8.08;100.00
51299;BME280;37382;45.192;9.790;2023-01-01T07:39:00;102855.59;;;8.06;100.00
51299;BME280;37382;45.192;9.790;2023-01-01T07:41:28;102858.06;;;8.09;100.00
51299;BME280;37382;45.192;9.790;2023-01-01T07:43:56;102862.25;;;8.13;100.00
51299;BME280;37382;45.192;9.790;2023-01-01T07:46:23;102856.47;;;8.07;100.00
51299;BME280;37382;45.192;9.790;2023-01-01T07:48:50;102849.84;;;7.99;100.00
51299;BME280;37382;45.192;9.790;2023-01-01T07:51:18;102871.16;;;7.93;100.00
51299;BME280;37382;45.192;9.790;2023-01-01T07:53:45;102863.03;;;7.93;100.00
51299;BME280;37382;45.192;9.790;2023-01-01T07:56:13;102874.25;;;7.99;100.00
51299;BME280;37382;45.192;9.790;2023-01-01T07:58:40;102868.19;;;7.96;100.00
51299;BME280;37382;45.192;9.790;2023-01-01T08:01:10;102874.13;;;8.01;100.00
51299;BME280;37382;45.192;9.790;2023-01-01T08:03:38;102881.38;;;8.00;100.00
51299;BME280;37382;45.192;9.790;2023-01-01T08:06:08;102874.97;;;8.01;100.00
51299;BME280;37382;45.192;9.790;2023-01-01T08:08:36;102873.63;;;7.96;100.00
51299;BME280;37382;45.192;9.790;2023-01-01T08:11:04;102865.97;;;8.01;100.00
51299;BME280;37382;45.192;9.790;2023-01-01T08:13:32;102875.09;;;8.00;100.00
51299;BME280;37382;45.192;9.790;2023-01-01T08:15:59;102872.34;;;8.11;100.00
51299;BME280;37382;45.192;9.790;2023-01-01T08:18:29;102867.56;;;8.36;100.00
51299;BME280;37382;45.192;9.790;2023-01-01T08:20:56;102871.00;;;8.38;100.00
51299;BME280;37382;45.192;9.790;2023-01-01T08:23:24;102878.72;;;8.22;100.00
51299;BME280;37382;45.192;9.790;2023-01-01T08:25:51;102876.94;;;8.32;100.00
51299;BME280;37382;45.192;9.790;2023-01-01T08:28:19;102877.72;;;8.23;100.00
51299;BME280;37382;45.192;9.790;2023-01-01T08:30:47;102877.41;;;8.37;100.00
51299;BME280;37382;45.192;9.790;2023-01-01T08:33:14;102868.03;;;8.41;100.00
51299;BME280;37382;45.192;9.790;2023-01-01T08:35:42;102865.28;;;8.20;100.00
51299;BME280;37382;45.192;9.790;2023-01-01T08:38:15;102866.66;;;8.14;100.00
51299;BME280;37382;45.192;9.790;2023-01-01T08:40:44;102873.66;;;8.28;100.00
51299;BME280;37382;45.192;9.790;2023-01-01T08:43:11;102865.75;;;8.25;100.00
51299;BME280;37382;45.192;9.790;2023-01-01T08:45:39;102864.16;;;8.23;100.00
51299;BME280;37382;45.192;9.790;2023-01-01T08:48:07;102872.94;;;8.15;100.00
51299;BME280;37382;45.192;9.790;2023-01-01T08:50:34;102867.34;;;8.28;100.00
51299;BME280;37382;45.192;9.790;2023-01-01T08:53:03;102868.31;;;8.27;100.00
51299;BME280;37382;45.192;9.790;2023-01-01T08:55:30;102867.66;;;8.46;100.00
51299;BME280;37382;45.192;9.790;2023-01-01T08:57:57;102870.72;;;8.41;100.00
51299;BME280;37382;45.192;9.790;2023-01-01T09:00:25;102865.53;;;8.49;100.00
51299;BME280;37382;45.192;9.790;2023-01-01T09:02:53;102868.13;;;8.51;100.00
51299;BME280;37382;45.192;9.790;2023-01-01T09:05:20;102867.78;;;8.44;100.00
51299;BME280;37382;45.192;9.790;2023-01-01T09:07:48;102870.97;;;8.49;100.00
51299;BME280;37382;45.192;9.790;2023-01-01T09:10:16;102872.09;;;8.47;100.00
51299;BME280;37382;45.192;9.790;2023-01-01T09:12:43;102880.25;;;8.35;100.00
51299;BME280;37382;45.192;9.790;2023-01-01T09:15:15;102877.13;;;8.40;100.00
51299;BME280;37382;45.192;9.790;2023-01-01T09:17:43;102886.59;;;8.25;100.00
51299;BME280;37382;45.192;9.790;2023-01-01T09:20:10;102894.47;;;8.28;100.00
51299;BME280;37382;45.192;9.790;2023-01-01T09:22:39;102882.88;;;8.26;100.00
51299;BME280;37382;45.192;9.790;2023-01-01T09:25:06;102878.81;;;8.31;100.00
51299;BME280;37382;45.192;9.790;2023-01-01T09:27:33;102881.66;;;8.30;100.00
51299;BME280;37382;45.192;9.790;2023-01-01T09:30:01;102881.72;;;8.40;100.00
51299;BME280;37382;45.192;9.790;2023-01-01T09:32:29;102879.84;;;8.40;100.00
51299;BME280;37382;45.192;9.790;2023-01-01T09:34:58;102880.72;;;8.41;100.00
51299;BME280;37382;45.192;9.790;2023-01-01T09:37:26;102889.97;;;8.38;100.00
51299;BME280;37382;45.192;9.790;2023-01-01T09:39:54;102888.75;;;8.42;100.00
51299;BME280;37382;45.192;9.790;2023-01-01T09:42:31;102886.41;;;8.37;100.00
51299;BME280;37382;45.192;9.790;2023-01-01T09:47:55;102878.69;;;8.54;100.00
51299;BME280;37382;45.192;9.790;2023-01-01T09:50:49;102874.41;;;8.51;100.00
51299;BME280;37382;45.192;9.790;2023-01-01T09:53:36;102877.66;;;8.45;100.00
51299;BME280;37382;45.192;9.790;2023-01-01T09:56:13;102884.69;;;8.36;100.00
51299;BME280;37382;45.192;9.790;2023-01-01T09:58:44;102877.53;;;8.35;100.00
51299;BME280;37382;45.192;9.790;2023-01-01T10:01:24;102867.06;;;8.31;100.00
51299;BME280;37382;45.192;9.790;2023-01-01T10:06:32;102873.31;;;8.43;100.00
51299;BME280;37382;45.192;9.790;2023-01-01T10:09:14;102868.41;;;8.36;100.00
51299;BME280;37382;45.192;9.790;2023-01-01T10:11:57;102873.22;;;8.44;100.00
51299;BME280;37382;45.192;9.790;2023-01-01T10:14:40;102863.09;;;8.46;100.00
51299;BME280;37382;45.192;9.790;2023-01-01T10:17:22;102859.88;;;8.41;100.00
51299;BME280;37382;45.192;9.790;2023-01-01T10:19:58;102852.59;;;8.42;100.00
51299;BME280;37382;45.192;9.790;2023-01-01T10:22:35;102850.13;;;8.50;100.00
51299;BME280;37382;45.192;9.790;2023-01-01T10:25:16;102850.53;;;8.45;100.00
51299;BME280;37382;45.192;9.790;2023-01-01T10:27:51;102847.03;;;8.43;100.00
51299;BME280;37382;45.192;9.790;2023-01-01T10:30:27;102845.69;;;8.49;100.00
51299;BME280;37382;45.192;9.790;2023-01-01T10:32:56;102845.25;;;8.44;100.00
51299;BME280;37382;45.192;9.790;2023-01-01T10:35:33;102838.88;;;8.54;100.00
51299;BME280;37382;45.192;9.790;2023-01-01T10:38:03;102848.19;;;8.62;100.00
51299;BME280;37382;45.192;9.790;2023-01-01T10:40:31;102838.81;;;8.66;100.00
51299;BME280;37382;45.192;9.790;2023-01-01T10:43:00;102833.31;;;8.77;100.00
51299;BME280;37382;45.192;9.790;2023-01-01T11:01:09;102826.34;;;8.42;100.00
51299;BME280;37382;45.192;9.790;2023-01-01T11:03:52;102831.91;;;8.41;100.00
51299;BME280;37382;45.192;9.790;2023-01-01T11:09:03;102824.56;;;8.52;100.00
51299;BME280;37382;45.192;9.790;2023-01-01T11:11:57;102819.56;;;8.48;100.00
51299;BME280;37382;45.192;9.790;2023-01-01T11:14:36;102818.50;;;8.39;100.00
51299;BME280;37382;45.192;9.790;2023-01-01T11:17:04;102820.31;;;8.38;100.00
51299;BME280;37382;45.192;9.790;2023-01-01T11:19:35;102815.16;;;8.35;100.00
51299;BME280;37382;45.192;9.790;2023-01-01T11:22:04;102808.34;;;8.41;100.00
51299;BME280;37382;45.192;9.790;2023-01-01T11:24:34;102806.34;;;8.43;100.00
51299;BME280;37382;45.192;9.790;2023-01-01T11:27:23;102803.00;;;8.51;100.00
51299;BME280;37382;45.192;9.790;2023-01-01T11:29:51;102812.28;;;8.48;100.00
51299;BME280;37382;45.192;9.790;2023-01-01T11:32:33;102804.28;;;8.47;100.00
51299;BME280;37382;45.192;9.790;2023-01-01T11:35:05;102797.38;;;8.43;100.00
51299;BME280;37382;45.192;9.790;2023-01-01T11:37:36;102801.19;;;8.40;100.00
51299;BME280;37382;45.192;9.790;2023-01-01T11:40:16;102787.28;;;8.45;100.00
51299;BME280;37382;45.192;9.790;2023-01-01T11:42:47;102781.09;;;8.43;100.00
51299;BME280;37382;45.192;9.790;2023-01-01T11:45:32;102780.47;;;8.50;100.00
51299;BME280;37382;45.192;9.790;2023-01-01T11:48:13;102773.72;;;8.45;100.00
51299;BME280;37382;45.192;9.790;2023-01-01T11:50:51;102775.47;;;8.55;100.00
51299;BME280;37382;45.192;9.790;2023-01-01T11:56:01;102769.66;;;8.60;100.00
51299;BME280;37382;45.192;9.790;2023-01-01T12:01:26;102761.38;;;8.62;100.00
51299;BME280;37382;45.192;9.790;2023-01-01T12:04:06;102754.25;;;8.61;100.00
51299;BME280;37382;45.192;9.790;2023-01-01T12:09:18;102747.81;;;8.62;100.00
51299;BME280;37382;45.192;9.790;2023-01-01T12:12:03;102758.53;;;8.63;100.00
51299;BME280;37382;45.192;9.790;2023-01-01T12:20:34;102743.94;;;8.54;100.00
51299;BME280;37382;45.192;9.790;2023-01-01T12:23:04;102739.66;;;8.62;100.00
51299;BME280;37382;45.192;9.790;2023-01-01T12:25:43;102738.69;;;8.63;100.00
51299;BME280;37382;45.192;9.790;2023-01-01T12:36:35;102727.25;;;8.59;100.00
51299;BME280;37382;45.192;9.790;2023-01-01T12:39:30;102730.38;;;8.54;100.00
51299;BME280;37382;45.192;9.790;2023-01-01T12:42:10;102727.66;;;8.54;100.00
51299;BME280;37382;45.192;9.790;2023-01-01T12:56:13;102717.69;;;8.65;100.00
51299;BME280;37382;45.192;9.790;2023-01-01T12:58:55;102717.44;;;8.68;100.00
51299;BME280;37382;45.192;9.790;2023-01-01T13:01:29;102711.47;;;8.74;100.00
51299;BME280;37382;45.192;9.790;2023-01-01T13:04:04;102705.16;;;8.64;100.00
51299;BME280;37382;45.192;9.790;2023-01-01T13:07:00;102704.13;;;8.65;100.00
51299;BME280;37382;45.192;9.790;2023-01-01T13:09:35;102713.56;;;8.61;100.00
51299;BME280;37382;45.192;9.790;2023-01-01T13:12:07;102700.69;;;8.63;100.00
51299;BME280;37382;45.192;9.790;2023-01-01T13:14:42;102706.59;;;8.68;100.00
51299;BME280;37382;45.192;9.790;2023-01-01T13:19:48;102714.31;;;8.72;100.00
51299;BME280;37382;45.192;9.790;2023-01-01T13:25:22;102702.28;;;8.65;100.00
51299;BME280;37382;45.192;9.790;2023-01-01T13:33:15;102697.31;;;8.70;100.00
51299;BME280;37382;45.192;9.790;2023-01-01T14:02:59;102695.63;;;8.79;100.00
51299;BME280;37382;45.192;9.790;2023-01-01T14:05:32;102694.44;;;8.72;100.00
51299;BME280;37382;45.192;9.790;2023-01-01T14:08:02;102692.91;;;8.79;100.00
51299;BME280;37382;45.192;9.790;2023-01-01T14:10:36;102693.28;;;8.65;100.00
51299;BME280;37382;45.192;9.790;2023-01-01T14:15:52;102701.41;;;8.65;100.00
51299;BME280;37382;45.192;9.790;2023-01-01T14:18:28;102686.84;;;8.56;100.00
51299;BME280;37382;45.192;9.790;2023-01-01T14:20:57;102688.25;;;8.60;100.00
51299;BME280;37382;45.192;9.790;2023-01-01T14:23:37;102686.88;;;8.66;100.00
51299;BME280;37382;45.192;9.790;2023-01-01T14:26:12;102691.72;;;8.62;100.00
51299;BME280;37382;45.192;9.790;2023-01-01T14:28:42;102685.69;;;8.59;100.00
51299;BME280;37382;45.192;9.790;2023-01-01T14:31:16;102687.13;;;8.63;100.00
51299;BME280;37382;45.192;9.790;2023-01-01T14:33:44;102693.13;;;8.57;100.00
51299;BME280;37382;45.192;9.790;2023-01-01T14:36:20;102686.00;;;8.65;100.00
51299;BME280;37382;45.192;9.790;2023-01-01T14:38:50;102692.44;;;8.64;100.00
51299;BME280;37382;45.192;9.790;2023-01-01T14:41:22;102685.41;;;8.62;100.00
51299;BME280;37382;45.192;9.790;2023-01-01T14:43:52;102694.19;;;8.75;100.00
51299;BME280;37382;45.192;9.790;2023-01-01T14:46:23;102697.28;;;8.61;100.00
51299;BME280;37382;45.192;9.790;2023-01-01T14:48:55;102688.44;;;8.68;100.00
51299;BME280;37382;45.192;9.790;2023-01-01T14:51:25;102691.19;;;8.78;100.00
51299;BME280;37382;45.192;9.790;2023-01-01T14:53:56;102693.28;;;8.65;100.00
51299;BME280;37382;45.192;9.790;2023-01-01T14:56:29;102701.81;;;8.60;100.00
51299;BME280;37382;45.192;9.790;2023-01-01T14:59:27;102703.53;;;8.51;100.00
51299;BME280;37382;45.192;9.790;2023-01-01T15:02:02;102700.34;;;8.46;100.00
51299;BME280;37382;45.192;9.790;2023-01-01T15:04:30;102702.22;;;8.55;100.00
51299;BME280;37382;45.192;9.790;2023-01-01T15:06:59;102699.78;;;8.52;100.00
51299;BME280;37382;45.192;9.790;2023-01-01T15:09:29;102712.38;;;8.53;100.00
51299;BME280;37382;45.192;9.790;2023-01-01T15:11:58;102706.47;;;8.69;100.00
51299;BME280;37382;45.192;9.790;2023-01-01T15:19:29;102695.81;;;8.57;100.00
51299;BME280;37382;45.192;9.790;2023-01-01T15:21:57;102710.38;;;8.55;100.00
51299;BME280;37382;45.192;9.790;2023-01-01T15:24:26;102705.09;;;8.54;100.00